Time;durP1;ratioP1;P1;durP2;ratioP2;P2;SDS_P1;SDS_P2;PMS_P1;PMS_P2;Temp;Humidity;BMP_temperature;BMP_pressure;BME280_temperature;BME280_humidity;BME280_pressure;Samples;Min_cycle;Max_cycle;Signal;HPM_P1;HPM_P2
2023/05/18 04:43:42;;;;;;;8.60;7.80;;;;;;;;;;5142740;23;20642;-91
2023/05/18 05:22:53;;;;;;;;;;;;;;;;;;4986528;28;20057;-90
2023/05/18 05:25:19;;;;;;;6.50;6.00;;;;;;;;;;4963263;28;20415;-89
2023/05/18 05:39:28;;;;;;;6.13;5.63;;;;;;;;;;5109898;23;20152;-89
2023/05/18 05:41:54;;;;;;;6.53;6.03;;;;;;;;;;4965890;28;20599;-90
2023/05/18 05:44:19;;;;;;;5.30;4.80;;;;;;;;;;4966858;28;20019;-92
2023/05/18 05:52:27;;;;;;;5.88;5.28;;;;;;;;;;5111146;23;20551;-88
2023/05/18 05:54:52;;;;;;;4.55;4.25;;;;;;;;;;4979281;28;20453;-88
2023/05/18 05:57:18;;;;;;;4.50;4.20;;;;;;;;;;4995549;28;20106;-89
2023/05/18 05:59:43;;;;;;;3.50;3.30;;;;;;;;;;4970349;28;20125;-88
2023/05/18 06:02:08;;;;;;;4.53;4.10;;;;;;;;;;4979238;28;20587;-90
2023/05/18 06:04:34;;;;;;;4.38;4.07;;;;;;;;;;4968794;28;20014;-88
2023/05/18 06:06:59;;;;;;;4.47;4.18;;;;;;;;;;4976815;28;20542;-88
2023/05/18 06:09:25;;;;;;;5.32;4.43;;;;;;;;;;4982239;28;20034;-89
2023/05/18 06:11:51;;;;;;;4.40;4.10;;;;;;;;;;4983397;28;20030;-87
2023/05/18 06:14:17;;;;;;;5.03;4.53;;;;;;;;;;4982355;28;20056;-89
2023/05/18 06:16:42;;;;;;;6.57;4.75;;;;;;;;;;4985337;28;20139;-85
2023/05/18 06:19:07;;;;;;;4.93;4.50;;;;;;;;;;4983779;28;20487;-86
2023/05/18 06:21:33;;;;;;;4.53;4.22;;;;;;;;;;4981960;28;20502;-91
2023/05/18 06:24:00;;;;;;;4.68;4.20;;;;;;;;;;4983610;28;20022;-85
2023/05/18 06:26:25;;;;;;;3.90;3.58;;;;;;;;;;4982793;28;20125;-93
2023/05/18 06:28:50;;;;;;;4.07;3.78;;;;;;;;;;4999134;28;20049;-86
2023/05/18 06:31:17;;;;;;;4.70;4.30;;;;;;;;;;5000362;28;20164;-85
2023/05/18 06:33:42;;;;;;;4.75;4.38;;;;;;;;;;4983412;28;20023;-86
2023/05/18 06:36:08;;;;;;;4.35;4.05;;;;;;;;;;4995728;28;20467;-85
2023/05/18 06:38:33;;;;;;;6.97;5.57;;;;;;;;;;5008649;28;20038;-88
2023/05/18 06:40:59;;;;;;;5.63;5.10;;;;;;;;;;4996166;28;20037;-86
2023/05/18 06:43:25;;;;;;;5.78;5.28;;;;;;;;;;4994088;28;20403;-86
2023/05/18 06:45:51;;;;;;;6.03;5.47;;;;;;;;;;4999815;28;20408;-87
2023/05/18 06:48:16;;;;;;;5.07;4.68;;;;;;;;;;4986164;28;20124;-88
2023/05/18 06:50:41;;;;;;;6.22;5.68;;;;;;;;;;4994512;28;20047;-86
2023/05/18 06:53:07;;;;;;;5.80;5.22;;;;;;;;;;4990466;28;20594;-85
2023/05/18 06:55:54;;;;;;;5.40;4.90;;;;;;;;;;4992855;28;20117;-81
2023/05/18 06:58:21;;;;;;;4.20;3.80;;;;;;;;;;5003680;28;20030;-81
2023/05/18 07:00:48;;;;;;;4.43;4.10;;;;;;;;;;4990371;28;20405;-80
2023/05/18 07:06:17;;;;;;;4.05;3.63;;;;;;;;;;5018131;28;20049;-82
2023/05/18 07:09:06;;;;;;;3.47;3.13;;;;;;;;;;5013075;28;20021;-80
2023/05/18 07:11:49;;;;;;;7.75;4.22;;;;;;;;;;5026253;28;20045;-82
2023/05/18 07:14:19;;;;;;;4.53;4.18;;;;;;;;;;5014407;28;20624;-79
2023/05/18 07:16:46;;;;;;;3.40;3.10;;;;;;;;;;5031256;28;20060;-80
2023/05/18 07:19:12;;;;;;;5.18;3.85;;;;;;;;;;5018921;28;20052;-81
2023/05/18 07:21:47;;;;;;;4.15;3.55;;;;;;;;;;5028562;28;20040;-80
2023/05/18 07:24:12;;;;;;;5.05;3.75;;;;;;;;;;5023879;28;20030;-80
2023/05/18 07:26:38;;;;;;;3.75;3.45;;;;;;;;;;5014938;28;20082;-79
2023/05/18 07:29:03;;;;;;;3.80;3.50;;;;;;;;;;5024012;28;20117;-79
2023/05/18 07:31:30;;;;;;;4.20;3.70;;;;;;;;;;5013189;28;20040;-79
2023/05/18 07:33:55;;;;;;;5.18;3.83;;;;;;;;;;5020211;28;20037;-79
2023/05/18 07:36:20;;;;;;;5.15;4.13;;;;;;;;;;5022135;28;20026;-78
2023/05/18 07:38:46;;;;;;;4.95;4.55;;;;;;;;;;5024358;28;20033;-80
2023/05/18 07:41:14;;;;;;;7.45;5.07;;;;;;;;;;5026640;28;20026;-79
2023/05/18 07:44:00;;;;;;;6.25;5.13;;;;;;;;;;5022315;28;20060;-79
2023/05/18 07:46:26;;;;;;;5.18;4.68;;;;;;;;;;5033198;28;20033;-79
2023/05/18 07:48:53;;;;;;;5.97;5.47;;;;;;;;;;5014713;28;20033;-78
2023/05/18 07:51:18;;;;;;;5.28;4.78;;;;;;;;;;5038942;28;20021;-79
2023/05/18 07:53:45;;;;;;;6.82;5.70;;;;;;;;;;5020868;28;20042;-80
2023/05/18 07:56:11;;;;;;;5.82;5.07;;;;;;;;;;5044882;28;20097;-78
2023/05/18 07:58:36;;;;;;;6.25;4.97;;;;;;;;;;5023523;28;20013;-78
2023/05/18 08:01:10;;;;;;;6.10;5.32;;;;;;;;;;5034609;28;20029;-79
2023/05/18 08:03:36;;;;;;;7.07;5.70;;;;;;;;;;5049302;28;20009;-79
2023/05/18 08:06:02;;;;;;;6.00;5.50;;;;;;;;;;5047521;28;20010;-79
2023/05/18 08:08:30;;;;;;;5.93;5.50;;;;;;;;;;5032341;28;20096;-81
2023/05/18 08:10:55;;;;;;;6.70;5.90;;;;;;;;;;5026355;28;20060;-80
2023/05/18 08:13:21;;;;;;;6.43;5.88;;;;;;;;;;5020001;28;20573;-80
2023/05/18 08:15:49;;;;;;;6.07;5.57;;;;;;;;;;5003919;28;20026;-81
2023/05/18 08:18:14;;;;;;;6.20;5.40;;;;;;;;;;5002368;28;20014;-79
2023/05/18 08:20:40;;;;;;;6.43;5.07;;;;;;;;;;5005627;28;20493;-79
2023/05/18 08:23:05;;;;;;;5.70;5.20;;;;;;;;;;5008608;28;20057;-78
2023/05/18 08:25:30;;;;;;;6.30;4.90;;;;;;;;;;5005613;28;20101;-81
2023/05/18 08:27:56;;;;;;;6.75;4.75;;;;;;;;;;5012712;28;20061;-80
2023/05/18 08:30:26;;;;;;;5.10;4.65;;;;;;;;;;5007895;28;20041;-80
2023/05/18 08:33:02;;;;;;;5.70;5.30;;;;;;;;;;5052163;28;20535;-80
2023/05/18 08:35:29;;;;;;;5.40;4.72;;;;;;;;;;5013895;28;20114;-78
2023/05/18 08:37:55;;;;;;;4.80;4.40;;;;;;;;;;5007668;28;20439;-79
2023/05/18 08:40:30;;;;;;;4.68;4.25;;;;;;;;;;5008589;28;20029;-79
2023/05/18 08:43:10;;;;;;;5.35;4.22;;;;;;;;;;5004412;28;20090;-77
2023/05/18 08:45:51;;;;;;;5.30;4.88;;;;;;;;;;4994374;28;20030;-80
2023/05/18 08:48:16;;;;;;;5.13;4.63;;;;;;;;;;5008801;28;20046;-78
2023/05/18 08:50:43;;;;;;;6.00;5.07;;;;;;;;;;5016903;28;20058;-80
2023/05/18 08:53:10;;;;;;;6.05;5.53;;;;;;;;;;5011838;28;20168;-79
2023/05/18 08:55:37;;;;;;;5.05;4.55;;;;;;;;;;5006101;28;20871;-78
2023/05/18 08:58:05;;;;;;;6.00;5.40;;;;;;;;;;5010402;28;20022;-81
2023/05/18 09:00:32;;;;;;;5.35;4.70;;;;;;;;;;5008473;28;20033;-78
2023/05/18 09:02:58;;;;;;;6.75;5.97;;;;;;;;;;5008430;28;20443;-81
2023/05/18 09:05:23;;;;;;;6.57;5.43;;;;;;;;;;5008401;28;20558;-77
2023/05/18 09:07:49;;;;;;;5.38;4.97;;;;;;;;;;5006787;28;20104;-78
2023/05/18 09:10:16;;;;;;;6.82;5.32;;;;;;;;;;5009929;28;20034;-77
2023/05/18 09:12:42;;;;;;;6.50;5.15;;;;;;;;;;5005356;28;20309;-78
2023/05/18 09:15:11;;;;;;;6.95;5.68;;;;;;;;;;4990287;28;20037;-78
2023/05/18 09:17:43;;;;;;;6.28;5.57;;;;;;;;;;5004703;28;20033;-79
2023/05/18 09:20:09;;;;;;;6.28;5.72;;;;;;;;;;5012597;28;20495;-77
2023/05/18 09:22:34;;;;;;;7.30;5.75;;;;;;;;;;5003187;28;20030;-79
2023/05/18 09:25:00;;;;;;;10.77;6.10;;;;;;;;;;4991675;28;20125;-80
2023/05/18 09:27:26;;;;;;;5.55;5.03;;;;;;;;;;4980927;28;20057;-79
2023/05/18 09:29:53;;;;;;;7.60;5.38;;;;;;;;;;4982153;28;20495;-78
2023/05/18 09:32:18;;;;;;;5.68;5.15;;;;;;;;;;4983751;28;20034;-77
2023/05/18 09:34:44;;;;;;;7.50;5.32;;;;;;;;;;4996634;28;20360;-76
2023/05/18 09:37:10;;;;;;;6.80;5.88;;;;;;;;;;5006555;28;20033;-77
2023/05/18 09:39:36;;;;;;;6.20;5.22;;;;;;;;;;4995741;28;20022;-78
2023/05/18 09:42:04;;;;;;;7.78;4.93;;;;;;;;;;4981859;28;20169;-77
2023/05/18 09:44:30;;;;;;;5.10;4.00;;;;;;;;;;4983917;28;20026;-78
2023/05/18 09:46:56;;;;;;;5.65;4.20;;;;;;;;;;5000023;28;20045;-77
2023/05/18 09:49:21;;;;;;;3.83;3.30;;;;;;;;;;4986796;28;20068;-78
2023/05/18 09:51:47;;;;;;;4.32;2.70;;;;;;;;;;4988786;28;20487;-78
2023/05/18 09:54:12;;;;;;;2.95;2.63;;;;;;;;;;5000990;28;20488;-78
2023/05/18 09:56:38;;;;;;;4.60;2.95;;;;;;;;;;4982301;28;20106;-78
2023/05/18 09:59:10;;;;;;;4.78;3.08;;;;;;;;;;4992253;28;20013;-78
2023/05/18 10:01:35;;;;;;;5.38;2.88;;;;;;;;;;4997692;28;20512;-77
2023/05/18 10:04:02;;;;;;;4.63;3.28;;;;;;;;;;4993980;28;20022;-78
2023/05/18 10:06:28;;;;;;;3.60;3.25;;;;;;;;;;4990591;28;20018;-77
2023/05/18 10:08:55;;;;;;;3.10;2.80;;;;;;;;;;5001134;28;20045;-78
2023/05/18 10:11:22;;;;;;;3.28;3.00;;;;;;;;;;5008346;28;20475;-78
2023/05/18 10:13:52;;;;;;;3.25;2.92;;;;;;;;;;5002759;28;20033;-78
2023/05/18 10:16:17;;;;;;;3.55;2.60;;;;;;;;;;5015830;28;20113;-80
2023/05/18 10:18:44;;;;;;;3.65;3.25;;;;;;;;;;5009489;28;20061;-79
2023/05/18 10:21:11;;;;;;;9.65;3.55;;;;;;;;;;5029825;28;20022;-81
2023/05/18 10:23:39;;;;;;;3.50;2.88;;;;;;;;;;5012084;28;20015;-80
2023/05/18 10:39:36;;;;;;;;;;;;;;;;;;4971394;28;20141;-85
2023/05/18 10:42:02;;;;;;;6.30;3.20;;;;;;;;;;4956185;28;19910;-85
2023/05/18 10:47:31;;;;;;;5.72;2.88;;;;;;;;;;4980358;28;20204;-89
2023/05/18 10:49:58;;;;;;;2.60;2.40;;;;;;;;;;4955364;28;20310;-85
2023/05/18 10:52:25;;;;;;;3.13;2.15;;;;;;;;;;4959890;28;20015;-86
2023/05/18 10:54:50;;;;;;;2.70;2.50;;;;;;;;;;4977137;28;20031;-85
2023/05/18 10:57:18;;;;;;;2.58;2.38;;;;;;;;;;4958599;28;20214;-87
2023/05/18 10:59:45;;;;;;;2.88;2.35;;;;;;;;;;4957535;28;20030;-88
2023/05/18 11:02:12;;;;;;;4.72;2.20;;;;;;;;;;4979429;28;20018;-86
2023/05/18 11:04:38;;;;;;;3.78;2.28;;;;;;;;;;4962158;28;20026;-87
2023/05/18 11:07:03;;;;;;;3.13;2.35;;;;;;;;;;4963461;28;20026;-86
2023/05/18 11:09:28;;;;;;;2.35;2.15;;;;;;;;;;4962148;28;20504;-87
2023/05/18 11:11:58;;;;;;;1.90;1.80;;;;;;;;;;4962941;28;20058;-87
2023/05/18 11:14:27;;;;;;;2.90;2.67;;;;;;;;;;4964968;28;20370;-87
2023/05/18 11:16:53;;;;;;;2.08;1.90;;;;;;;;;;4962869;28;20022;-87
2023/05/18 11:19:23;;;;;;;3.83;3.38;;;;;;;;;;4981267;28;20020;-86
2023/05/18 11:21:49;;;;;;;3.33;2.75;;;;;;;;;;4963977;28;20037;-87
2023/05/18 11:24:17;;;;;;;3.40;3.08;;;;;;;;;;4982725;28;20023;-88
2023/05/18 11:27:05;;;;;;;4.22;3.35;;;;;;;;;;4983012;28;20026;-89
2023/05/18 11:29:31;;;;;;;3.97;2.55;;;;;;;;;;4983433;28;20432;-89
2023/05/18 11:31:56;;;;;;;3.63;2.67;;;;;;;;;;4975591;28;20034;-87
2023/05/18 11:34:34;;;;;;;3.58;2.90;;;;;;;;;;4979905;28;20488;-87
2023/05/18 11:36:59;;;;;;;3.72;3.20;;;;;;;;;;4983065;28;20457;-87
2023/05/18 11:39:25;;;;;;;4.03;2.45;;;;;;;;;;4998374;28;20026;-88
2023/05/18 11:44:56;;;;;;;2.92;2.72;;;;;;;;;;4984587;28;20260;-88
2023/05/18 11:47:22;;;;;;;7.47;2.50;;;;;;;;;;4992925;28;20022;-89
2023/05/18 11:49:49;;;;;;;2.63;2.42;;;;;;;;;;4984353;28;20488;-89
2023/05/18 11:52:18;;;;;;;3.10;2.50;;;;;;;;;;4983144;28;20330;-86
2023/05/18 11:54:57;;;;;;;3.80;2.65;;;;;;;;;;4977184;28;20562;-90
2023/05/18 11:57:24;;;;;;;3.83;3.08;;;;;;;;;;4981935;28;20033;-89
2023/05/18 11:59:54;;;;;;;3.22;2.67;;;;;;;;;;4982896;28;20054;-89
2023/05/18 12:02:20;;;;;;;4.93;2.60;;;;;;;;;;4981995;28;20030;-89
2023/05/18 12:04:46;;;;;;;7.22;2.50;;;;;;;;;;4982089;28;20507;-88
2023/05/18 13:25:10;;;;;;;4.43;4.03;;;;;;;;;;5047375;23;20089;-87
2023/05/18 13:27:35;;;;;;;4.63;4.22;;;;;;;;;;4980335;28;20061;-87
2023/05/18 13:30:01;;;;;;;6.10;4.30;;;;;;;;;;4999202;28;20827;-87
2023/05/18 13:32:26;;;;;;;5.05;4.32;;;;;;;;;;4981416;28;20056;-87
2023/05/18 13:34:51;;;;;;;4.80;4.30;;;;;;;;;;4981086;28;20026;-87
2023/05/18 13:37:17;;;;;;;7.40;4.72;;;;;;;;;;4999633;28;20619;-88
2023/05/18 13:39:42;;;;;;;8.63;5.10;;;;;;;;;;4980183;28;20022;-87
2023/05/18 13:42:08;;;;;;;7.43;4.32;;;;;;;;;;4981616;28;20486;-88
2023/05/18 13:44:33;;;;;;;5.60;5.13;;;;;;;;;;4979570;28;20022;-88
2023/05/18 13:46:59;;;;;;;6.60;5.70;;;;;;;;;;4999633;28;20423;-87
2023/05/18 13:49:24;;;;;;;6.70;5.90;;;;;;;;;;4980324;28;20042;-88
2023/05/18 13:51:50;;;;;;;7.10;6.35;;;;;;;;;;4981366;28;20101;-88
2023/05/18 13:54:15;;;;;;;5.70;5.20;;;;;;;;;;4981554;28;20032;-88
2023/05/18 13:56:40;;;;;;;8.88;5.43;;;;;;;;;;4996031;28;20080;-86
2023/05/18 13:59:05;;;;;;;6.05;5.55;;;;;;;;;;4975413;28;20024;-88
2023/05/18 14:01:31;;;;;;;9.32;6.30;;;;;;;;;;4979654;28;20018;-87
2023/05/18 14:03:56;;;;;;;9.05;6.47;;;;;;;;;;4981868;28;20022;-87
2023/05/18 14:06:22;;;;;;;6.07;5.07;;;;;;;;;;4974661;28;20036;-87
2023/05/18 14:08:48;;;;;;;4.75;4.30;;;;;;;;;;4982627;28;20103;-87
2023/05/18 14:11:13;;;;;;;4.55;4.25;;;;;;;;;;4980275;28;20022;-87
2023/05/18 14:13:39;;;;;;;7.38;6.03;;;;;;;;;;4980267;28;20333;-86
2023/05/18 14:16:05;;;;;;;4.95;4.55;;;;;;;;;;4980822;28;20037;-87
2023/05/18 14:18:30;;;;;;;5.63;4.25;;;;;;;;;;4979529;28;20022;-86
2023/05/18 14:20:59;;;;;;;4.05;3.75;;;;;;;;;;4980867;28;20129;-85
2023/05/18 14:23:24;;;;;;;4.15;3.85;;;;;;;;;;4997353;28;20484;-84
2023/05/18 14:25:50;;;;;;;4.03;3.60;;;;;;;;;;4996834;28;20092;-84
2023/05/18 14:28:16;;;;;;;4.07;3.78;;;;;;;;;;4996251;28;20416;-86
2023/05/18 14:30:41;;;;;;;4.70;4.25;;;;;;;;;;4996651;28;20046;-86
2023/05/18 14:33:07;;;;;;;4.18;3.78;;;;;;;;;;4997120;28;20083;-87
2023/05/18 14:35:32;;;;;;;5.72;5.22;;;;;;;;;;4996878;28;20485;-86
2023/05/18 14:37:57;;;;;;;6.05;5.60;;;;;;;;;;4999072;28;20014;-86
2023/05/18 14:40:22;;;;;;;5.67;4.80;;;;;;;;;;4997103;28;20491;-87
2023/05/18 14:42:48;;;;;;;5.10;4.70;;;;;;;;;;5013478;28;20354;-87
2023/05/18 14:45:13;;;;;;;4.87;4.47;;;;;;;;;;4995952;28;20859;-87
2023/05/18 14:47:38;;;;;;;4.85;4.35;;;;;;;;;;4997402;28;20268;-88
2023/05/18 14:50:04;;;;;;;4.30;4.00;;;;;;;;;;4996067;28;20030;-87
2023/05/18 14:52:29;;;;;;;5.05;4.13;;;;;;;;;;4996900;28;20307;-87
2023/05/18 14:54:54;;;;;;;4.88;4.35;;;;;;;;;;4997032;28;20447;-88
2023/05/18 14:57:20;;;;;;;5.03;4.63;;;;;;;;;;4997917;28;20124;-89
2023/05/18 14:59:45;;;;;;;4.68;4.28;;;;;;;;;;5000725;28;20499;-88
2023/05/18 15:02:10;;;;;;;5.82;5.28;;;;;;;;;;5001004;28;20774;-88
2023/05/18 15:04:35;;;;;;;6.32;5.25;;;;;;;;;;5001716;28;20022;-88
2023/05/18 15:07:01;;;;;;;5.18;4.68;;;;;;;;;;4999849;28;20021;-89
2023/05/18 15:09:41;;;;;;;17.60;10.45;;;;;;;;;;4994948;28;20026;-87
2023/05/18 15:18:16;;;;;;;13.57;9.82;;;;;;;;;;4987219;28;20084;-88
2023/05/18 15:20:42;;;;;;;10.35;8.82;;;;;;;;;;4967125;28;20145;-88
2023/05/18 15:23:08;;;;;;;9.27;8.45;;;;;;;;;;4978918;28;20090;-86
2023/05/18 15:25:33;;;;;;;7.63;6.82;;;;;;;;;;4983594;28;20077;-87
2023/05/18 15:27:59;;;;;;;6.93;5.80;;;;;;;;;;4998646;28;20025;-87
2023/05/18 15:30:24;;;;;;;5.35;4.85;;;;;;;;;;4999043;28;20574;-87
2023/05/18 15:32:49;;;;;;;5.47;5.07;;;;;;;;;;4998266;28;20146;-87
2023/05/18 15:35:15;;;;;;;6.47;5.73;;;;;;;;;;4979472;28;20038;-86
2023/05/18 15:37:40;;;;;;;5.10;4.70;;;;;;;;;;4982987;28;20257;-87
2023/05/18 15:40:06;;;;;;;5.10;4.70;;;;;;;;;;4981636;28;20376;-86
2023/05/18 15:42:32;;;;;;;4.55;4.25;;;;;;;;;;4993675;28;20109;-86
2023/05/18 15:44:57;;;;;;;5.82;4.53;;;;;;;;;;4982371;28;20483;-86
2023/05/18 15:47:23;;;;;;;5.88;4.35;;;;;;;;;;4997900;28;20025;-85
2023/05/18 15:49:48;;;;;;;4.60;3.97;;;;;;;;;;4982343;28;20027;-87
2023/05/18 15:52:13;;;;;;;6.47;3.80;;;;;;;;;;4997332;28;20026;-86
2023/05/18 15:54:38;;;;;;;4.32;3.97;;;;;;;;;;4999221;28;20273;-86
2023/05/18 15:57:04;;;;;;;4.40;4.10;;;;;;;;;;4997376;28;20555;-86
2023/05/18 15:59:29;;;;;;;5.90;4.80;;;;;;;;;;4977914;28;20023;-86
2023/05/18 16:07:27;;;;;;;9.10;4.80;;;;;;;;;;4983154;28;20044;-84
2023/05/18 16:09:52;;;;;;;4.80;4.35;;;;;;;;;;4987897;28;20039;-85
2023/05/18 16:12:17;;;;;;;5.70;5.18;;;;;;;;;;4981818;28;20025;-84
2023/05/18 16:14:43;;;;;;;5.23;4.80;;;;;;;;;;4999065;28;20030;-88
2023/05/18 16:17:08;;;;;;;5.38;4.97;;;;;;;;;;4996072;28;20298;-85
2023/05/18 16:19:34;;;;;;;5.63;5.13;;;;;;;;;;4980276;28;20062;-84
2023/05/18 16:21:59;;;;;;;5.85;5.32;;;;;;;;;;4984322;28;20089;-85
2023/05/18 16:24:25;;;;;;;5.43;4.93;;;;;;;;;;4982760;28;20022;-85
2023/05/18 16:35:24;;;;;;;8.68;5.65;;;;;;;;;;4977196;28;20038;-86
2023/05/18 16:37:49;;;;;;;6.90;6.10;;;;;;;;;;4980344;28;20790;-86
2023/05/18 16:40:15;;;;;;;6.38;5.53;;;;;;;;;;4993079;28;21799;-84
2023/05/18 16:42:40;;;;;;;8.05;6.32;;;;;;;;;;4979073;28;20121;-86
2023/05/18 17:08:28;;;;;;;7.28;6.70;;;;;;;;;;5038728;23;20516;-83
2023/05/18 17:11:06;;;;;;;7.78;7.07;;;;;;;;;;4964798;28;20158;-85
